Flight Track Log - Related Links

Times and Time Zones

All times are in EST time to prevent confusion due to time zone crossing. See the N315CJ flight status page for this flight to view local times or setup timezone preferences in your user account.

Time Position Orientation Groundspeed Altitude Reporting Facility
EST Latitude Longitude Course Direction KTS MPH feet Rate Location/Type
Fri 06:47:52 AM 42.2208 -83.5525 224° Southwest 195 224 1,600  Level Cleveland Center
Fri 06:48:10 AM 42.2092 -83.5678 224° Southwest 194 223 2,500 2,143 Climbing Cleveland Center
Fri 06:49:16 AM 42.2089 -83.6317 270° West 234 269 4,600 2,418 Climbing Cleveland Center
Fri 06:49:17 AM 42.2164 -83.6336 349° North 211 243 5,200 3,918 Climbing Cleveland Center
Fri 06:50:05 AM 42.2667 -83.6325 North 240 276 7,800 2,754 Climbing Cleveland Center
Fri 06:50:18 AM 42.2733 -83.6317 North 229 264 8,000 3,081 Climbing Cleveland Center
Fri 06:51:19 AM 42.3019 -83.5456 66° East 275 316 11,600 3,148 Climbing Cleveland Center
Fri 06:52:20 AM 42.2806 -83.4306 104° East 308 354 14,400 2,683 Climbing Cleveland Center
Fri 06:53:22 AM 42.2561 -83.3147 106° East 317 365 17,100 2,537 Climbing Cleveland Center
Fri 06:54:23 AM 42.2314 -83.1886 105° East 335 386 19,600 2,361 Climbing Cleveland Center
Fri 06:55:24 AM 42.1997 -83.0575 108° East 368 423 21,900 2,098 Climbing Cleveland Center
Fri 06:56:26 AM 42.1742 -82.9142 103° East 397 457 23,900 1,951 Climbing Cleveland Center
Fri 06:57:27 AM 42.1461 -82.7633 104° East 410 472 25,900 2,098 Climbing Cleveland Center
Fri 06:58:29 AM 42.1086 -82.5844 106° East 418 481 28,200 2,000 Climbing Cleveland Center
Fri 06:59:30 AM 42.0783 -82.4267 104° East 433 498 30,000 1,854 Climbing Cleveland Center
Fri 07:00:32 AM 42.0567 -82.2656 100° East 439 505 32,000 2,049 Climbing Cleveland Center
Fri 07:01:33 AM 42.0236 -82.1039 105° East 434 499 34,200 1,854 Climbing Cleveland Center
Fri 07:02:35 AM 41.9508 -81.9956 132° Southeast 384 442 35,800 1,610 Climbing Cleveland Center
Fri 07:03:36 AM 41.8678 -81.9175 145° Southeast 361 415 37,500 1,463 Climbing Cleveland Center
Fri 07:04:38 AM 41.7867 -81.8392 144° Southeast 356 410 38,800 1,024 Climbing Cleveland Center
Fri 07:05:39 AM 41.7053 -81.7628 145° Southeast 353 406 39,600 780 Climbing Cleveland Center
Fri 07:06:41 AM 41.6192 -81.6936 149° Southeast 355 409 40,400 683 Climbing Cleveland Center
Fri 07:07:42 AM 41.5306 -81.6272 151° Southeast 358 412 41,000 293 Climbing Cleveland Center
Fri 07:08:44 AM 41.4347 -81.5561 151° Southeast 384 442 41,000  Level Cleveland Center
Fri 07:09:45 AM 41.3364 -81.4853 152° Southeast 410 472 41,000  Level Cleveland Center
Fri 07:10:47 AM 41.2214 -81.3997 151° Southeast 436 502 41,000  Level Cleveland Center
Fri 07:11:49 AM 41.1092 -81.3189 152° Southeast 447 514 41,000  Level Cleveland Center
Fri 07:17:28 AM 40.4837 -80.8689 152° Southeast 449 517 41,000  Level FlightAware ADS-B
Fri 07:18:08 AM 40.4023 -80.8111 152° Southeast 450 518 41,000  Level FlightAware ADS-B
Fri 07:19:39 AM 40.2370 -80.6941 152° Southeast 453 521 41,000  Level FlightAware ADS-B
Fri 07:21:03 AM 40.0975 -80.5956 152° Southeast 452 520 41,000  Level Cleveland Center
Fri 07:22:05 AM 39.9878 -80.5186 152° Southeast 453 521 41,000  Level Cleveland Center
Fri 07:23:06 AM 39.8769 -80.4422 152° Southeast 452 520 41,000  Level Cleveland Center
Fri 07:24:08 AM 39.7450 -80.3506 152° Southeast 453 521 41,000  Level Cleveland Center
Fri 07:25:10 AM 39.6344 -80.2736 152° Southeast 453 521 41,000  Level Cleveland Center
Fri 07:26:11 AM 39.5236 -80.1969 152° Southeast 453 521 41,000  Level Cleveland Center
Fri 07:27:01 AM 39.4300 -80.1325 152° Southeast 448 516 41,000  Level Washington Center
Fri 07:28:02 AM 39.3183 -80.0558 152° Southeast 448 516 41,000  Level Washington Center
Fri 07:29:02 AM 39.2086 -79.9794 152° Southeast 453 521 41,000  Level Washington Center
Fri 07:30:00 AM 39.1189 -79.9206 153° Southeast 453 521 41,000  Level Washington Center
Fri 07:31:01 AM 38.9844 -79.8350 154° Southeast 453 521 41,000  Level Washington Center
Fri 07:32:01 AM 38.8867 -79.7681 152° Southeast 453 521 41,000  Level Washington Center
Fri 07:33:03 AM 38.7767 -79.6925 152° Southeast 446 513 41,000 -504 Level Washington Center
Fri 07:34:00 AM 38.6686 -79.6200 152° Southeast 446 513 40,000 -1,271 Descending Washington Center
Fri 07:35:01 AM 38.5628 -79.5481 152° Southeast 441 507 38,500 -1,623 Descending Washington Center
Fri 07:36:02 AM 38.4442 -79.4700 153° Southeast 436 502 36,700 -2,066 Descending Washington Center
Fri 07:37:03 AM 38.3422 -79.3986 151° Southeast 436 502 34,300 -2,900 Descending Washington Center
Fri 07:38:02 AM 38.2339 -79.3297 153° Southeast 431 496 30,900 -3,450 Descending Washington Center
Fri 07:39:03 AM 38.1317 -79.2611 152° Southeast 425 489 27,400 -1,966 Descending Washington Center
Fri 07:40:01 AM 38.0336 -79.1956 152° Southeast 412 474 27,000 -203 Descending Washington Center
Fri 07:41:01 AM 37.9394 -79.1333 152° Southeast 412 474 27,000  Level Washington Center
Fri 07:42:02 AM 37.8725 -79.0039 123° Southeast 417 480 27,000  Level Washington Center
Fri 07:43:02 AM 37.8308 -78.8519 109° East 428 493 27,000  Level Washington Center
Fri 07:44:03 AM 37.7867 -78.7031 111° Southeast 435 501 27,000 -712 Level Washington Center
Fri 07:45:00 AM 37.7467 -78.5569 109° East 440 506 25,600 -1,866 Descending Washington Center
Fri 07:46:02 AM 37.7025 -78.4031 110° East 434 499 23,300 -2,098 Descending Washington Center
Fri 07:47:03 AM 37.6597 -78.2650 111° Southeast 429 494 21,300 -1,169 Descending Washington Center
Fri 07:48:00 AM 37.6186 -78.1322 111° Southeast 424 488 21,000 -153 Descending Washington Center
Fri 07:49:01 AM 37.5775 -78.0000 111° Southeast 404 465 21,000  Level Washington Center
Fri 07:50:02 AM 37.5406 -77.8706 110° East 398 458 21,000 -545 Level Washington Center
Fri 07:51:02 AM 37.5242 -77.7364 99° East 393 452 19,900 -1,300 Descending Washington Center
Fri 07:52:02 AM 37.5119 -77.5972 96° East 387 445 18,400 -1,289 Descending Washington Center
Fri 07:53:03 AM 37.5039 -77.4608 94° East 387 445 17,300 -1,140 Descending Washington Center
Fri 07:54:03 AM 37.4931 -77.3350 96° East 381 438 16,100 -586 Descending Washington Center
Fri 07:55:16 AM 37.4847 -77.1908 94° East 339 390 16,000 -58 Descending Washington Center
Fri 07:55:46 AM 37.4814 -77.1333 94° East 336 387 16,000  Level Washington Center
Fri 07:56:01 AM 37.4756 -77.0964 101° East 336 387 16,000 102 Level Washington Center
Fri 07:56:45 AM 37.4703 -77.0128 95° East 347 399 16,100  Climbing Washington Center
Fri 07:57:03 AM 37.4667 -76.9733 97° East 336 387 16,000  Descending Washington Center
Fri 07:57:45 AM 37.4614 -76.8869 94° East 362 417 16,100  Climbing Washington Center
Fri 07:58:00 AM 37.4533 -76.8503 105° East 348 400 16,000 -197 Descending Washington Center
Fri 07:58:46 AM 37.4439 -76.7533 97° East 366 421 15,900 -197 Descending Washington Center
Fri 07:59:01 AM 37.4378 -76.7347 112° Southeast 360 414 15,800 -1,970 Descending Washington Center
Fri 07:59:53 AM 37.3653 -76.6683 144° Southeast 339 390 13,700 -2,066 Descending Washington Center
Fri 08:00:02 AM 37.3614 -76.6606 122° Southeast 329 379 13,700 -2,066 Level Washington Center
Fri 08:00:54 AM 37.2889 -76.6022 147° Southeast 319 367 11,600 -2,066 Descending Washington Center
Fri 08:01:03 AM 37.2889 -76.5969 90° East 321 369 11,600 -2,000 Level Washington Center
Fri 08:02:03 AM 37.2081 -76.5383 150° Southeast 303 349 9,300 -1,667 Descending Washington Center
Fri 08:02:15 AM 37.2164 -76.5386 358° North 315 362 9,600 -2,156 Climbing Washington Center
Fri 08:03:07 AM 37.1375 -76.4778 148° Southeast 283 326 7,000 -2,690 Descending Washington Center
Fri 08:03:13 AM 37.1356 -76.4750 131° Southeast 297 342 7,000 -1,869 Level Washington Center
Fri 08:04:08 AM 37.0711 -76.4275 150° Southeast 272 313 5,100 -1,869 Descending Washington Center
Fri 08:04:14 AM 37.0711 -76.4247 90° East 283 326 5,100  Level Washington Center
Fri 08:05:02 AM 37.0131 -76.3775 147° Southeast 276 318 5,100 -872 Level Washington Center
Fri 08:06:11 AM 36.9422 -76.3350 154° Southeast 243 280 3,400 -1,116 Descending Washington Center
Fri 08:07:11 AM 36.8797 -76.3319 178° South 189 217 2,700 -992 Descending Washington Center
Fri 08:08:12 AM 36.8531 -76.2719 119° Southeast 199 229 1,400 -1,087 Descending Washington Center
Fri 08:09:18 AM 36.8761 -76.2228 60° Northeast 127 146 400 -909 Descending Washington Center

Login

Don't have an account? Register now (free) for customized features, flight alerts, and more!